Columbia Gorge Regional the Dalles Municipal Airport The Dalles US
ICAO: KDLS
IATA: DLS
Category: Medium
Scheduled Services: No

Elevation: 247 ft
TransAlt. 18000 ft.

Airport Communications:
ASOS:135.175
SEATTLE CNTR:119.65
SEATTLE RDO:122.65
CTAF/UNICOM:123

KDLS Zoom In..

Runways:

(A) RW 07 length 4647 ft width 100 ft
---- / hdg 69

(B) RW 13 length 5097 ft width 100 ft
---- / hdg 126

(C) RW 25 length 4647 ft width 100 ft
ILS 109.35 / hdg 249

(D) RW 31 length 5097 ft width 100 ft
---- / hdg 306

Location; KDLS
Day. 30 / Time. 19.53 Zulu
* Altimeter: 29.57
* Temperature: 22° c. 71.6°f.
* Wind from: 310° Speed 25 kn with Gusts up to 36 kn.
Dewpoint: 12° c.
Visibility: 10 Statute Miles.
Clouds: Clear (automated report).

KDLS 301953Z AUTO 31025G36KT 10SM CLR 22/12 A2957 RMK AO2 PK WND 32039/1936 SLP011 T02220117


Wind From 310°
Speed 25 kn.

 
 
jpsmedia worldairports.se 2020   terms of use